createdAt,value
2022-12-11T00:01:01.069Z,14.47
2022-12-11T00:03:29.494Z,14.70
2022-12-11T00:05:57.808Z,16.47
2022-12-11T00:08:26.071Z,15.33
2022-12-11T00:10:54.362Z,16.13
2022-12-11T00:13:22.632Z,14.47
2022-12-11T00:15:52.216Z,14.73
2022-12-11T00:18:20.541Z,14.53
2022-12-11T00:20:48.813Z,15.10
2022-12-11T00:23:17.510Z,13.27
2022-12-11T00:25:46.706Z,13.93
2022-12-11T00:28:16.751Z,16.00
2022-12-11T00:30:45.110Z,15.27
2022-12-11T00:33:15.366Z,12.63
2022-12-11T00:35:44.808Z,17.53
2022-12-11T00:38:15.833Z,15.80
2022-12-11T00:40:44.569Z,15.70
2022-12-11T00:43:13.231Z,15.30
2022-12-11T00:45:42.933Z,14.37
2022-12-11T00:48:11.723Z,15.40
2022-12-11T00:50:41.754Z,15.13
2022-12-11T00:53:09.994Z,16.67
2022-12-11T00:55:38.699Z,13.60
2022-12-11T00:58:07.151Z,15.13
2022-12-11T01:00:35.459Z,15.87
2022-12-11T01:03:03.847Z,13.97
2022-12-11T01:05:32.164Z,12.97
2022-12-11T01:08:01.868Z,14.67
2022-12-11T01:10:29.292Z,13.53
2022-12-11T01:12:58.463Z,13.87
2022-12-11T01:15:27.897Z,14.20
2022-12-11T01:17:56.554Z,14.70
2022-12-11T01:20:25.475Z,15.10
2022-12-11T01:22:54.431Z,15.20
2022-12-11T01:25:24.123Z,15.23
2022-12-11T01:27:52.737Z,15.77
2022-12-11T01:30:21.551Z,15.97
2022-12-11T01:32:49.748Z,15.03
2022-12-11T01:35:18.190Z,16.60
2022-12-11T01:37:46.561Z,15.33
2022-12-11T01:40:15.796Z,15.10
2022-12-11T01:42:45.716Z,15.07
2022-12-11T01:45:28.799Z,16.10
2022-12-11T01:47:58.636Z,15.67
2022-12-11T01:50:27.057Z,16.97
2022-12-11T01:52:55.466Z,14.03
2022-12-11T01:55:23.860Z,14.27
2022-12-11T01:57:53.911Z,15.50
2022-12-11T02:00:22.563Z,17.00
2022-12-11T02:02:50.855Z,16.37
2022-12-11T02:05:19.238Z,13.60
2022-12-11T02:07:49.689Z,18.47
2022-12-11T02:10:18.264Z,14.43
2022-12-11T02:12:53.749Z,12.17
2022-12-11T02:15:26.645Z,13.33
2022-12-11T02:18:00.325Z,13.50
2022-12-11T02:20:30.960Z,13.60
2022-12-11T02:23:06.469Z,14.10
2022-12-11T02:25:37.835Z,15.30
2022-12-11T02:28:17.339Z,16.10
2022-12-11T02:30:47.544Z,12.33
2022-12-11T02:33:16.876Z,14.53
2022-12-11T02:35:47.220Z,13.50
2022-12-11T02:38:17.843Z,12.90
2022-12-11T02:40:46.561Z,15.10
2022-12-11T02:43:17.939Z,13.93
2022-12-11T02:45:47.463Z,12.67
2022-12-11T02:48:16.535Z,12.83
2022-12-11T02:50:47.333Z,12.30
2022-12-11T02:53:17.992Z,12.00
2022-12-11T02:55:47.389Z,11.73
2022-12-11T02:58:19.900Z,14.00
2022-12-11T03:00:48.387Z,13.03
2022-12-11T03:03:16.640Z,13.10
2022-12-11T03:05:46.210Z,11.43
2022-12-11T03:08:17.411Z,12.07
2022-12-11T03:10:45.938Z,12.40
2022-12-11T03:13:14.396Z,13.07
2022-12-11T03:15:48.323Z,12.20
2022-12-11T03:18:20.068Z,11.70
2022-12-11T03:20:52.450Z,13.93
2022-12-11T03:23:24.025Z,12.27
2022-12-11T03:25:55.167Z,14.20
2022-12-11T03:28:27.937Z,12.30
2022-12-11T03:30:58.414Z,13.50
2022-12-11T03:33:28.593Z,12.87
2022-12-11T03:35:58.618Z,12.73
2022-12-11T03:38:29.714Z,12.20
2022-12-11T03:40:59.108Z,12.80
2022-12-11T03:43:28.224Z,13.60
2022-12-11T03:45:58.980Z,12.77
2022-12-11T03:48:29.731Z,15.37
2022-12-11T03:50:58.281Z,14.20
2022-12-11T03:53:27.630Z,12.40
2022-12-11T03:55:58.566Z,15.67
2022-12-11T03:58:26.907Z,12.07
2022-12-11T04:00:55.214Z,12.57
2022-12-11T04:03:24.810Z,15.47
2022-12-11T04:05:53.864Z,14.13
2022-12-11T04:08:22.793Z,16.03
2022-12-11T04:11:11.977Z,12.70
2022-12-11T04:13:40.528Z,12.43
2022-12-11T04:16:07.865Z,11.60
2022-12-11T04:18:55.162Z,12.40
2022-12-11T04:21:41.241Z,12.00
2022-12-11T04:24:18.457Z,10.70
2022-12-11T04:26:47.791Z,10.13
2022-12-11T04:29:16.443Z,14.00
2022-12-11T04:31:45.782Z,12.60
2022-12-11T04:34:15.439Z,14.93
2022-12-11T04:36:43.808Z,12.27
2022-12-11T04:39:12.023Z,10.30
2022-12-11T04:41:41.525Z,12.07
2022-12-11T04:44:09.806Z,12.40
2022-12-11T04:46:38.134Z,10.87
2022-12-11T04:49:06.484Z,11.47
2022-12-11T04:51:36.133Z,9.60
2022-12-11T04:54:04.367Z,12.57
2022-12-11T04:56:32.567Z,11.80
2022-12-11T04:59:00.822Z,12.07
2022-12-11T05:01:29.181Z,12.07
2022-12-11T05:03:57.428Z,11.10
2022-12-11T05:06:25.716Z,10.90
2022-12-11T05:08:55.314Z,10.17
2022-12-11T05:11:23.593Z,11.43
2022-12-11T05:13:51.785Z,11.07
2022-12-11T05:16:20.116Z,11.23
2022-12-11T05:18:48.573Z,12.13
2022-12-11T05:21:17.175Z,10.20
2022-12-11T05:23:45.456Z,11.47
2022-12-11T05:26:16.231Z,9.97
2022-12-11T05:28:45.196Z,9.90
2022-12-11T05:31:14.563Z,11.13
2022-12-11T05:33:44.271Z,9.60
2022-12-11T05:36:15.898Z,9.83
2022-12-11T05:38:44.239Z,10.23
2022-12-11T05:41:14.242Z,11.47
2022-12-11T05:43:43.848Z,9.97
2022-12-11T05:46:14.016Z,12.50
2022-12-11T05:48:42.822Z,10.47
2022-12-11T05:51:11.537Z,10.80
2022-12-11T05:53:40.210Z,12.03
2022-12-11T05:56:09.615Z,11.30
2022-12-11T05:58:37.849Z,11.70
2022-12-11T06:01:10.632Z,10.17
2022-12-11T06:03:38.930Z,11.00
2022-12-11T06:06:07.646Z,9.87
2022-12-11T06:08:36.334Z,11.20
2022-12-11T06:11:05.096Z,11.47
2022-12-11T06:13:33.757Z,9.53
2022-12-11T06:16:03.384Z,9.90
2022-12-11T06:18:33.390Z,10.10
2022-12-11T06:21:01.645Z,10.77
2022-12-11T06:23:29.965Z,10.73
2022-12-11T06:25:58.166Z,11.83
2022-12-11T06:28:26.465Z,11.00
2022-12-11T06:30:54.761Z,10.13
2022-12-11T06:33:23.141Z,11.03
2022-12-11T06:35:53.039Z,11.20
2022-12-11T06:38:21.352Z,11.20
2022-12-11T06:40:56.281Z,8.60
2022-12-11T06:43:24.599Z,10.83
2022-12-11T06:45:53.471Z,10.00
2022-12-11T06:48:22.250Z,10.07
2022-12-11T06:50:50.444Z,10.70
2022-12-11T06:53:20.024Z,11.27
2022-12-11T06:55:48.248Z,11.07
2022-12-11T06:58:16.808Z,11.50
2022-12-11T07:00:45.041Z,10.33
2022-12-11T07:03:13.884Z,10.93
2022-12-11T07:05:42.325Z,10.67
2022-12-11T07:08:11.031Z,10.17
2022-12-11T07:10:41.716Z,10.27
2022-12-11T07:13:09.928Z,11.33
2022-12-11T07:15:40.471Z,8.90
2022-12-11T07:18:09.003Z,10.97
2022-12-11T07:20:37.606Z,10.37
2022-12-11T07:23:06.085Z,10.40
2022-12-11T07:25:34.387Z,11.80
2022-12-11T07:28:04.268Z,11.30
2022-12-11T07:30:32.976Z,9.60
2022-12-11T07:33:01.536Z,8.60
2022-12-11T07:35:29.888Z,8.33
2022-12-11T07:37:59.746Z,9.03
2022-12-11T07:40:28.641Z,8.60
2022-12-11T07:42:56.905Z,9.20
2022-12-11T07:45:27.860Z,10.20
2022-12-11T07:47:56.875Z,7.53
2022-12-11T07:50:25.228Z,8.70
2022-12-11T07:52:53.769Z,9.80
2022-12-11T07:55:22.526Z,9.50
2022-12-11T07:57:50.828Z,8.90
2022-12-11T08:00:20.682Z,10.00
2022-12-11T08:02:50.467Z,8.77
2022-12-11T08:05:18.947Z,9.23
2022-12-11T08:07:47.353Z,9.67
2022-12-11T08:10:16.817Z,8.47
2022-12-11T08:12:45.218Z,10.10
2022-12-11T08:15:14.809Z,9.13
2022-12-11T08:17:43.123Z,9.23
2022-12-11T08:20:13.180Z,9.87
2022-12-11T08:22:41.889Z,10.23
2022-12-11T08:25:10.806Z,9.90
2022-12-11T08:27:39.296Z,10.60
2022-12-11T08:30:08.200Z,8.90
2022-12-11T08:32:36.638Z,8.20
2022-12-11T08:35:05.563Z,9.03
2022-12-11T08:37:35.936Z,9.97
2022-12-11T08:40:04.435Z,10.90
2022-12-11T08:42:32.698Z,9.73
2022-12-11T08:45:00.943Z,12.10
2022-12-11T08:47:29.604Z,9.80
2022-12-11T08:49:57.865Z,11.40
2022-12-11T08:52:26.224Z,7.80
2022-12-11T08:54:55.822Z,10.47
2022-12-11T08:57:24.028Z,9.93
2022-12-11T08:59:52.397Z,9.27
2022-12-11T09:02:21.784Z,9.80
2022-12-11T09:04:51.147Z,9.87
2022-12-11T09:07:19.472Z,9.57
2022-12-11T09:09:47.759Z,9.50
2022-12-11T09:12:17.455Z,9.77
2022-12-11T09:14:45.768Z,10.50
2022-12-11T09:17:14.058Z,11.13
2022-12-11T09:19:42.321Z,9.57
2022-12-11T09:22:11.376Z,10.77
2022-12-11T09:24:39.703Z,10.93
2022-12-11T09:27:08.083Z,10.03
2022-12-11T09:29:38.075Z,11.30
2022-12-11T09:32:06.634Z,9.03
2022-12-11T09:34:35.122Z,7.30
2022-12-11T09:37:03.711Z,8.87
2022-12-11T09:39:31.957Z,10.53
2022-12-11T09:42:03.284Z,7.80
2022-12-11T09:44:39.538Z,8.07
2022-12-11T09:47:17.920Z,8.67
2022-12-11T09:49:48.396Z,9.33
2022-12-11T09:52:19.108Z,7.97
2022-12-11T09:54:52.476Z,9.10
2022-12-11T09:57:27.398Z,9.40
2022-12-11T10:00:05.679Z,8.83
2022-12-11T10:02:40.820Z,10.00
2022-12-11T10:05:16.073Z,10.40
2022-12-11T10:07:47.576Z,8.17
2022-12-11T10:10:18.120Z,10.40
2022-12-11T10:12:49.706Z,10.57
2022-12-11T10:15:25.997Z,9.30
2022-12-11T10:18:02.953Z,10.90
2022-12-11T10:20:36.410Z,11.70
2022-12-11T10:23:06.066Z,9.43
2022-12-11T10:25:37.371Z,9.07
2022-12-11T10:28:12.814Z,10.60
2022-12-11T10:30:43.071Z,10.97
2022-12-11T10:33:20.670Z,12.70
2022-12-11T10:35:50.281Z,12.13
2022-12-11T10:38:21.814Z,10.27
2022-12-11T10:40:52.298Z,11.30
2022-12-11T10:43:20.635Z,10.60
2022-12-11T10:45:52.954Z,10.13
2022-12-11T10:48:23.115Z,12.50
2022-12-11T10:50:59.225Z,11.57
2022-12-11T10:53:27.733Z,10.57
2022-12-11T10:55:57.985Z,11.00
2022-12-11T10:58:27.716Z,11.43
2022-12-11T11:01:05.350Z,11.27
2022-12-11T11:03:35.739Z,12.60
2022-12-11T11:06:05.821Z,7.27
2022-12-11T11:08:40.021Z,7.40
2022-12-11T11:11:08.992Z,8.47
2022-12-11T11:13:37.386Z,10.23
2022-12-11T11:16:07.047Z,10.10
2022-12-11T11:18:36.987Z,10.70
2022-12-11T11:21:18.502Z,11.50
2022-12-11T11:23:51.850Z,11.03
2022-12-11T11:26:22.664Z,11.20
2022-12-11T11:28:53.085Z,11.20
2022-12-11T11:31:22.324Z,10.37
2022-12-11T11:33:56.728Z,11.57
2022-12-11T11:36:26.124Z,11.77
2022-12-11T11:39:04.583Z,11.37
2022-12-11T11:41:36.370Z,10.60
2022-12-11T11:44:07.110Z,12.50
2022-12-11T11:46:36.894Z,14.00
2022-12-11T11:49:10.117Z,13.20
2022-12-11T11:51:41.413Z,11.47
2022-12-11T11:54:17.046Z,15.07
2022-12-11T11:56:45.628Z,14.13
2022-12-11T11:59:17.494Z,14.60
2022-12-11T12:01:45.802Z,14.03
2022-12-11T12:04:15.879Z,13.57
2022-12-11T12:06:59.136Z,14.27
2022-12-11T12:09:35.711Z,14.97
2022-12-11T12:12:11.432Z,13.23
2022-12-11T12:14:53.221Z,13.50
2022-12-11T12:17:24.389Z,11.30
2022-12-11T12:20:01.066Z,11.80
2022-12-11T12:22:37.857Z,11.07
2022-12-11T12:25:12.648Z,13.33
2022-12-11T12:27:53.063Z,12.30
2022-12-11T12:30:23.315Z,11.93
2022-12-11T12:32:59.329Z,9.70
2022-12-11T12:35:36.258Z,9.47
2022-12-11T12:38:09.372Z,9.50
2022-12-11T12:40:41.715Z,10.07
2022-12-11T12:43:20.969Z,9.50
2022-12-11T12:46:01.105Z,9.47
2022-12-11T12:48:30.829Z,9.77
2022-12-11T12:51:03.024Z,11.17
2022-12-11T12:53:38.947Z,9.90
2022-12-11T12:56:07.798Z,8.17
2022-12-11T12:58:42.942Z,6.80
2022-12-11T13:01:12.218Z,9.93
2022-12-11T13:03:47.749Z,10.20
2022-12-11T13:06:16.121Z,10.70
2022-12-11T13:08:48.061Z,9.40
2022-12-11T13:11:19.078Z,10.80
2022-12-11T13:13:54.476Z,9.33
2022-12-11T13:16:26.792Z,9.27
2022-12-11T13:18:55.467Z,10.40
2022-12-11T13:21:28.829Z,7.57
2022-12-11T13:24:14.266Z,10.30
2022-12-11T13:26:43.193Z,8.90
2022-12-11T13:29:26.273Z,8.90
2022-12-11T13:31:58.950Z,8.80
2022-12-11T13:34:28.293Z,9.63
2022-12-11T13:36:57.778Z,7.90
2022-12-11T13:39:28.528Z,9.50
2022-12-11T13:42:00.006Z,10.60
2022-12-11T13:44:30.570Z,9.93
2022-12-11T13:47:00.030Z,10.23
2022-12-11T13:49:31.380Z,9.97
2022-12-11T13:52:00.486Z,9.73
2022-12-11T13:54:30.817Z,9.70
2022-12-11T13:57:01.136Z,9.10
2022-12-11T13:59:31.401Z,8.60
2022-12-11T14:02:01.884Z,9.90
2022-12-11T14:04:30.663Z,11.07
2022-12-11T14:07:00.205Z,9.57
2022-12-11T14:09:30.185Z,9.70
2022-12-11T14:11:59.332Z,9.93
2022-12-11T14:14:34.866Z,8.50
2022-12-11T14:17:03.255Z,9.17
2022-12-11T14:19:31.762Z,9.23
2022-12-11T14:22:01.172Z,8.53
2022-12-11T14:24:32.072Z,10.50
2022-12-11T14:27:01.310Z,9.20
2022-12-11T14:29:30.785Z,8.70
2022-12-11T14:32:01.509Z,9.50
2022-12-11T14:34:32.139Z,8.70
2022-12-11T14:37:00.848Z,8.70
2022-12-11T14:39:30.976Z,10.20
2022-12-11T14:42:04.458Z,11.37
2022-12-11T14:44:35.325Z,10.20
2022-12-11T14:47:06.236Z,10.60
2022-12-11T14:49:48.346Z,7.90
2022-12-11T14:52:18.854Z,9.20
2022-12-11T14:54:51.135Z,9.73
2022-12-11T14:57:29.739Z,9.53
2022-12-11T14:59:58.377Z,10.00
2022-12-11T15:02:28.516Z,9.87
2022-12-11T15:05:14.584Z,9.07
2022-12-11T15:07:45.000Z,9.27
2022-12-11T15:10:24.148Z,8.40
2022-12-11T15:12:54.063Z,10.27
2022-12-11T15:15:22.496Z,9.37
2022-12-11T15:17:53.011Z,8.77
2022-12-11T15:20:23.812Z,9.00
2022-12-11T15:22:52.653Z,7.87
2022-12-11T15:25:22.210Z,8.40
2022-12-11T15:27:53.323Z,9.83
2022-12-11T15:30:34.747Z,9.17
2022-12-11T15:33:03.956Z,10.40
2022-12-11T15:35:32.354Z,9.20
2022-12-11T15:38:00.745Z,8.97
2022-12-11T15:40:29.144Z,10.17
2022-12-11T15:42:57.857Z,11.03
2022-12-11T15:45:28.348Z,9.90
2022-12-11T15:47:59.542Z,9.03
2022-12-11T15:50:28.759Z,9.03
2022-12-11T15:52:57.773Z,10.00
2022-12-11T15:55:28.486Z,9.30
2022-12-11T15:57:57.565Z,8.73
2022-12-11T16:00:27.576Z,9.30
2022-12-11T16:02:55.837Z,10.30
2022-12-11T16:05:25.603Z,12.57
2022-12-11T16:07:54.753Z,7.83
2022-12-11T16:10:23.608Z,8.47
2022-12-11T16:12:51.828Z,9.47
2022-12-11T16:15:23.410Z,10.40
2022-12-11T16:18:03.000Z,9.13
2022-12-11T16:20:33.183Z,10.20
2022-12-11T16:23:01.565Z,10.70
2022-12-11T16:25:29.972Z,10.20
2022-12-11T16:27:58.638Z,11.53
2022-12-11T16:30:27.271Z,10.93
2022-12-11T16:32:55.763Z,10.90
2022-12-11T16:35:24.353Z,11.60
2022-12-11T16:37:55.128Z,12.27
2022-12-11T16:40:23.707Z,13.40
2022-12-11T16:42:52.037Z,13.80
2022-12-11T16:45:21.336Z,12.40
2022-12-11T16:47:49.963Z,14.97
2022-12-11T16:50:18.597Z,13.87
2022-12-11T16:52:47.217Z,14.10
2022-12-11T16:55:20.989Z,14.80
2022-12-11T16:57:49.268Z,16.10
2022-12-11T17:00:17.882Z,11.33
2022-12-11T17:02:46.154Z,12.87
2022-12-11T17:05:14.997Z,13.87
2022-12-11T17:07:43.329Z,14.40
2022-12-11T17:10:12.581Z,13.63
2022-12-11T17:12:42.229Z,15.43
2022-12-11T17:15:10.948Z,15.13
2022-12-11T17:17:39.398Z,15.90
2022-12-11T17:20:08.231Z,17.80
2022-12-11T17:22:37.011Z,16.60
2022-12-11T17:25:05.482Z,14.70
2022-12-11T17:27:33.684Z,17.40
2022-12-11T17:30:04.404Z,18.70
2022-12-11T17:32:32.683Z,17.13
2022-12-11T17:35:00.982Z,17.93
2022-12-11T17:37:29.256Z,17.10
2022-12-11T17:39:57.511Z,15.80
2022-12-11T17:42:25.766Z,18.20
2022-12-11T17:44:54.028Z,17.17
2022-12-11T17:47:23.721Z,21.63
2022-12-11T17:49:51.973Z,24.03
2022-12-11T17:52:20.184Z,21.90
2022-12-11T17:54:48.522Z,21.63
2022-12-11T17:57:16.888Z,22.40
2022-12-11T17:59:45.114Z,20.93
2022-12-11T18:02:13.412Z,20.67
2022-12-11T18:04:43.127Z,21.30
2022-12-11T18:07:11.461Z,21.80
2022-12-11T18:09:41.229Z,18.27
2022-12-11T18:12:09.552Z,19.80
2022-12-11T18:14:38.308Z,20.80
2022-12-11T18:17:06.595Z,18.83
2022-12-11T18:19:34.954Z,18.43
2022-12-11T18:22:04.566Z,19.23
2022-12-11T18:24:32.807Z,17.40
2022-12-11T18:27:01.077Z,17.83
2022-12-11T18:29:29.384Z,15.67
2022-12-11T18:31:57.590Z,17.23
2022-12-11T18:34:25.835Z,17.30
2022-12-11T18:36:54.088Z,17.50
2022-12-11T18:39:23.669Z,18.00
2022-12-11T18:42:16.606Z,15.43
2022-12-11T18:44:43.196Z,16.10
2022-12-11T18:47:11.423Z,14.87
2022-12-11T18:49:39.713Z,15.63
2022-12-11T18:52:08.158Z,13.40
2022-12-11T18:54:38.052Z,14.63
2022-12-11T18:57:07.325Z,15.70
2022-12-11T18:59:35.815Z,15.97
2022-12-11T19:02:04.200Z,16.10
2022-12-11T19:04:32.506Z,16.73
2022-12-11T19:07:01.388Z,13.47
2022-12-11T19:09:32.815Z,13.83
2022-12-11T19:12:07.226Z,13.43
2022-12-11T19:14:35.497Z,16.17
2022-12-11T19:17:04.195Z,16.27
2022-12-11T19:19:32.593Z,19.90
2022-12-11T19:22:00.800Z,13.90
2022-12-11T19:24:30.603Z,15.00
2022-12-11T19:26:59.060Z,16.33
2022-12-11T19:29:32.335Z,16.17
2022-12-11T19:32:01.499Z,14.00
2022-12-11T19:34:29.803Z,14.17
2022-12-11T19:36:58.981Z,12.93
2022-12-11T19:39:27.262Z,13.87
2022-12-11T19:41:58.649Z,12.80
2022-12-11T19:44:27.018Z,14.17
2022-12-11T19:46:56.704Z,13.13
2022-12-11T19:49:25.109Z,16.07
2022-12-11T19:51:53.358Z,15.47
2022-12-11T19:54:21.576Z,16.80
2022-12-11T19:56:49.991Z,15.73
2022-12-11T19:59:19.000Z,14.20
2022-12-11T20:01:48.018Z,15.00
2022-12-11T20:04:20.029Z,15.57
2022-12-11T20:06:48.840Z,16.60
2022-12-11T20:09:18.013Z,15.60
2022-12-11T20:11:47.365Z,15.87
2022-12-11T20:14:19.054Z,16.10
2022-12-11T20:17:10.154Z,14.13
2022-12-11T20:19:37.249Z,16.50
2022-12-11T20:22:05.623Z,16.03
2022-12-11T20:24:33.836Z,13.83
2022-12-11T20:27:02.036Z,13.97
2022-12-11T20:29:30.276Z,15.70
2022-12-11T20:31:59.632Z,16.37
2022-12-11T20:34:27.981Z,21.27
2022-12-11T20:36:57.584Z,19.83
2022-12-11T20:39:26.518Z,19.27
2022-12-11T20:41:54.868Z,19.20
2022-12-11T20:44:23.121Z,20.03
2022-12-11T20:46:51.681Z,17.23
2022-12-11T20:49:20.445Z,16.87
2022-12-11T20:51:48.616Z,15.13
2022-12-11T20:54:18.274Z,14.10
2022-12-11T20:56:47.702Z,15.80
2022-12-11T20:59:15.966Z,14.60
2022-12-11T21:01:44.284Z,14.83
2022-12-11T21:04:12.649Z,13.70
2022-12-11T21:06:41.924Z,13.70
2022-12-11T21:09:11.363Z,12.80
2022-12-11T21:11:41.392Z,14.93
2022-12-11T21:14:09.681Z,12.93
2022-12-11T21:16:38.699Z,12.90
2022-12-11T21:19:11.220Z,13.20
2022-12-11T21:21:42.719Z,12.50
2022-12-11T21:24:14.988Z,12.13
2022-12-11T21:26:44.647Z,13.10
2022-12-11T21:29:12.879Z,11.70
2022-12-11T21:31:42.185Z,11.50
2022-12-11T21:34:10.444Z,11.47
2022-12-11T21:36:38.957Z,9.87
2022-12-11T21:39:07.426Z,11.23
2022-12-11T21:41:35.720Z,12.30
2022-12-11T21:46:54.100Z,9.87
2022-12-11T21:49:22.364Z,10.83
2022-12-11T21:51:50.768Z,10.37
2022-12-11T21:54:20.282Z,10.63
2022-12-11T21:56:48.879Z,10.27
2022-12-11T21:59:18.477Z,9.77
2022-12-11T22:01:47.559Z,9.70
2022-12-11T22:04:16.473Z,9.27
2022-12-11T22:06:47.074Z,10.50
2022-12-11T22:09:15.760Z,9.33
2022-12-11T22:11:47.465Z,9.13
2022-12-11T22:14:16.867Z,11.03
2022-12-11T22:16:47.032Z,8.47
2022-12-11T22:19:15.493Z,8.73
2022-12-11T22:21:44.141Z,8.87
2022-12-11T22:24:12.588Z,10.63
2022-12-11T22:26:40.904Z,8.13
2022-12-11T22:29:09.252Z,7.97
2022-12-11T22:31:37.540Z,8.53
2022-12-11T22:34:07.725Z,7.40
2022-12-11T22:36:37.185Z,9.70
2022-12-11T22:39:10.847Z,10.50
2022-12-11T22:41:42.196Z,7.73
2022-12-11T22:44:14.582Z,9.50
2022-12-11T22:46:48.192Z,8.83
2022-12-11T22:49:24.918Z,9.90
2022-12-11T22:51:53.266Z,7.73
2022-12-11T22:54:21.722Z,7.97
2022-12-11T22:56:50.032Z,7.97
2022-12-11T22:59:18.356Z,8.07
2022-12-11T23:01:46.757Z,8.77
2022-12-11T23:04:15.088Z,8.57
2022-12-11T23:06:44.734Z,7.63
2022-12-11T23:09:13.103Z,8.17
2022-12-11T23:11:41.577Z,7.67
2022-12-11T23:14:10.577Z,8.87
2022-12-11T23:16:38.980Z,9.13
2022-12-11T23:19:07.329Z,8.13
2022-12-11T23:21:35.706Z,8.10
2022-12-11T23:24:05.461Z,8.80
2022-12-11T23:26:34.261Z,8.10
2022-12-11T23:29:02.641Z,7.03
2022-12-11T23:31:31.220Z,9.00
2022-12-11T23:34:02.589Z,7.50
2022-12-11T23:36:31.515Z,7.40
2022-12-11T23:38:59.857Z,8.17
2022-12-11T23:41:29.516Z,7.40
2022-12-11T23:43:57.732Z,5.80
2022-12-11T23:46:26.363Z,7.63
2022-12-11T23:48:55.185Z,7.43
2022-12-11T23:51:24.361Z,8.33
2022-12-11T23:53:52.959Z,7.77
2022-12-11T23:56:22.440Z,6.80
2022-12-11T23:58:52.101Z,7.10
